createdAt,value
2023-02-15T00:00:03.933Z,1007.53
2023-02-15T00:05:03.015Z,1007.52
2023-02-15T00:10:03.328Z,1007.57
2023-02-15T00:15:03.093Z,1007.66
2023-02-15T00:20:03.164Z,1007.87
2023-02-15T00:25:03.146Z,1007.99
2023-02-15T00:30:03.269Z,1008.06
2023-02-15T00:35:03.122Z,1008.08
2023-02-15T00:40:03.346Z,1008.12
2023-02-15T00:45:03.903Z,1008.22
2023-02-15T00:50:04.756Z,1008.22
2023-02-15T00:55:03.022Z,1008.21
2023-02-15T01:00:03.238Z,1008.34
2023-02-15T01:05:02.993Z,1008.36
2023-02-15T01:10:03.157Z,1008.3
2023-02-15T01:15:02.959Z,1008.21
2023-02-15T01:20:03.122Z,1008.28
2023-02-15T01:25:03.011Z,1008.47
2023-02-15T01:30:03.193Z,1008.49
2023-02-15T01:35:03.039Z,1008.83
2023-02-15T01:40:03.252Z,1009.47
2023-02-15T01:45:03.050Z,1009.44
2023-02-15T01:50:03.234Z,1009.47
2023-02-15T01:55:03.006Z,1009.53
2023-02-15T02:00:03.418Z,1009.57
2023-02-15T02:05:03.059Z,1009.61
2023-02-15T02:10:03.223Z,1009.46
2023-02-15T02:15:02.991Z,1009.3
2023-02-15T02:20:03.199Z,1009.22
2023-02-15T02:25:02.967Z,1009.28
2023-02-15T02:30:03.257Z,1009.3
2023-02-15T02:35:03.058Z,1008.68
2023-02-15T02:40:03.328Z,1008.85
2023-02-15T02:45:03.065Z,1008.9
2023-02-15T02:50:03.137Z,1008.89
2023-02-15T02:55:03.006Z,1008.67
2023-02-15T03:00:03.199Z,1008.33
2023-02-15T03:05:03.013Z,1008.12
2023-02-15T03:10:03.185Z,1008.23
2023-02-15T03:15:02.960Z,1008.2
2023-02-15T03:20:03.225Z,1008.17
2023-02-15T03:25:03.128Z,1008.14
2023-02-15T03:30:03.257Z,1008.28
2023-02-15T03:35:03.030Z,1008.23
2023-02-15T03:40:03.357Z,1008.2
2023-02-15T03:45:03.118Z,1008.12
2023-02-15T03:50:03.284Z,1008.09
2023-02-15T03:55:02.994Z,1007.95
2023-02-15T04:00:03.146Z,1007.88
2023-02-15T04:05:03.038Z,1007.9
2023-02-15T04:10:03.740Z,1007.99
2023-02-15T04:15:02.982Z,1008.14
2023-02-15T04:20:03.135Z,1008.1
2023-02-15T04:25:02.967Z,1008.26
2023-02-15T04:30:03.279Z,1008.27
2023-02-15T04:35:02.993Z,1008.01
2023-02-15T04:40:03.169Z,1008.24
2023-02-15T04:45:03.019Z,1008.19
2023-02-15T04:50:03.164Z,1007.88
2023-02-15T04:55:03.006Z,1007.73
2023-02-15T05:00:03.230Z,1007.7
2023-02-15T05:05:03.106Z,1007.75
2023-02-15T05:10:03.214Z,1007.35
2023-02-15T05:15:02.993Z,1007.09
2023-02-15T05:20:03.178Z,1007.05
2023-02-15T05:25:03.069Z,1007.11
2023-02-15T05:30:03.264Z,1007.37
2023-02-15T05:35:02.918Z,1007.37
2023-02-15T05:40:03.161Z,1007.54
2023-02-15T05:45:03.078Z,1007.56
2023-02-15T05:50:03.141Z,1007.43
2023-02-15T05:55:03.049Z,1007.45
2023-02-15T06:00:03.199Z,1007.48
2023-02-15T06:05:03.009Z,1007.48
2023-02-15T06:10:03.194Z,1007.41
2023-02-15T06:15:06.639Z,1007.33
2023-02-15T06:20:06.341Z,1007.28
2023-02-15T06:25:03.027Z,1007.33
2023-02-15T06:30:04.084Z,1007.35
2023-02-15T06:35:03.149Z,1007.27
2023-02-15T06:40:04.214Z,1007.18
2023-02-15T06:45:03.004Z,1006.95
2023-02-15T06:50:04.170Z,1006.88
2023-02-15T06:55:03.046Z,1007.01
2023-02-15T07:00:03.980Z,1006.95
2023-02-15T07:05:03.071Z,1006.85
2023-02-15T07:10:04.047Z,1006.91
2023-02-15T07:15:02.985Z,1006.75
2023-02-15T07:20:03.999Z,1006.45
2023-02-15T07:25:03.017Z,1006.46
2023-02-15T07:30:04.063Z,1006.33
2023-02-15T07:35:03.010Z,1006.23
2023-02-15T07:40:03.966Z,1006.28
2023-02-15T07:45:03.027Z,1006.28
2023-02-15T07:50:04.074Z,1006.42
2023-02-15T07:55:03.190Z,1006.52
2023-02-15T08:00:04.098Z,1006.5
2023-02-15T08:05:03.084Z,1006.41
2023-02-15T08:10:04.058Z,1006.33
2023-02-15T08:15:02.997Z,1006.28
2023-02-15T08:20:04.026Z,1006.22
2023-02-15T08:25:03.068Z,1006.17
2023-02-15T08:30:04.018Z,1006.2
2023-02-15T08:35:03.098Z,1006.24
2023-02-15T08:40:06.295Z,1006.09
2023-02-15T08:45:03.052Z,1006.18
2023-02-15T08:50:04.005Z,1006.3
2023-02-15T08:55:03.085Z,1006.29
2023-02-15T09:00:03.993Z,1006.42
2023-02-15T09:05:03.082Z,1006.63
2023-02-15T09:10:04.118Z,1006.9
2023-02-15T09:15:03.158Z,1006.91
2023-02-15T09:20:04.009Z,1006.88
2023-02-15T09:25:03.141Z,1006.81
2023-02-15T09:30:04.177Z,1007.02
2023-02-15T09:35:03.076Z,1007.07
2023-02-15T09:40:04.050Z,1007.09
2023-02-15T09:45:03.119Z,1007.03
2023-02-15T09:50:03.924Z,1007.08
2023-02-15T09:55:03.275Z,1007.34
2023-02-15T10:00:04.093Z,1007.5
2023-02-15T10:05:03.128Z,1007.57
2023-02-15T10:10:04.134Z,1007.55
2023-02-15T10:15:04.149Z,1007.61
2023-02-15T10:20:03.977Z,1007.79
2023-02-15T10:25:03.052Z,1007.85
2023-02-15T10:30:04.182Z,1007.77
2023-02-15T10:35:03.061Z,1007.71
2023-02-15T10:40:04.025Z,1007.77
2023-02-15T10:45:03.146Z,1007.8
2023-02-15T10:50:04.010Z,1007.73
2023-02-15T10:55:02.999Z,1007.67
2023-02-15T11:00:04.009Z,1007.97
2023-02-15T11:05:03.058Z,1008.31
2023-02-15T11:10:04.015Z,1008.5
2023-02-15T11:15:03.094Z,1008.37
2023-02-15T11:20:04.164Z,1008.25
2023-02-15T11:25:03.167Z,1008.17
2023-02-15T11:30:04.102Z,1008.1
2023-02-15T11:35:03.229Z,1008.09
2023-02-15T11:40:04.000Z,1008.48
2023-02-15T11:45:03.108Z,1009.03
2023-02-15T11:50:04.097Z,1009.14
2023-02-15T11:55:03.161Z,1008.95
2023-02-15T12:00:04.082Z,1008.92
2023-02-15T12:05:03.085Z,1008.79
2023-02-15T12:10:04.119Z,1008.8
2023-02-15T12:15:03.280Z,1008.84
2023-02-15T12:20:04.035Z,1008.77
2023-02-15T12:25:03.074Z,1008.83
2023-02-15T12:30:04.175Z,1008.82
2023-02-15T12:35:03.073Z,1008.69
2023-02-15T12:40:04.139Z,1008.53
2023-02-15T12:45:03.089Z,1008.58
2023-02-15T12:50:04.364Z,1008.64
2023-02-15T12:55:03.056Z,1008.62
2023-02-15T13:00:04.116Z,1008.58
2023-02-15T13:05:03.121Z,1008.48
2023-02-15T13:10:04.142Z,1008.34
2023-02-15T13:15:03.183Z,1008.26
2023-02-15T13:20:04.139Z,1008.33
2023-02-15T13:25:03.094Z,1008.26
2023-02-15T13:30:04.246Z,1008.12
2023-02-15T13:35:04.922Z,1007.96
2023-02-15T13:40:04.188Z,1007.73
2023-02-15T13:45:03.136Z,1007.6
2023-02-15T13:50:04.397Z,1007.47
2023-02-15T13:55:03.166Z,1007.31
2023-02-15T14:00:04.206Z,1007.32
2023-02-15T14:05:03.100Z,1007.28
2023-02-15T14:10:04.147Z,1007.13
2023-02-15T14:15:03.076Z,1006.9
2023-02-15T14:20:04.162Z,1006.81
2023-02-15T14:25:03.769Z,1006.75
2023-02-15T14:30:04.048Z,1006.7
2023-02-15T14:35:03.058Z,1006.66
2023-02-15T14:40:06.233Z,1006.61
2023-02-15T14:45:03.245Z,1006.47
2023-02-15T14:50:04.222Z,1006.39
2023-02-15T14:55:03.084Z,1006.54
2023-02-15T15:00:04.020Z,1006.62
2023-02-15T15:05:04.124Z,1006.59
2023-02-15T15:10:04.109Z,1006.51
2023-02-15T15:15:03.141Z,1006.5
2023-02-15T15:20:04.222Z,1006.42
2023-02-15T15:25:03.037Z,1006.37
2023-02-15T15:30:04.126Z,1006.31
2023-02-15T15:35:03.130Z,1006.33
2023-02-15T15:40:04.080Z,1006.32
2023-02-15T15:45:03.106Z,1006.29
2023-02-15T15:50:04.098Z,1006.26
2023-02-15T15:55:03.231Z,1006.22
2023-02-15T16:00:04.045Z,1006.19
2023-02-15T16:05:03.068Z,1006.22
2023-02-15T16:10:04.302Z,1006.31
2023-02-15T16:15:03.111Z,1006.3
2023-02-15T16:20:03.905Z,1006.38
2023-02-15T16:25:03.110Z,1006.49
2023-02-15T16:30:04.337Z,1006.56
2023-02-15T16:35:03.107Z,1006.57
2023-02-15T16:40:04.117Z,1006.58
2023-02-15T16:45:03.062Z,1006.67
2023-02-15T16:50:04.023Z,1006.75
2023-02-15T16:55:03.126Z,1006.82
2023-02-15T17:00:04.187Z,1006.79
2023-02-15T17:05:03.157Z,1006.72
2023-02-15T17:10:04.020Z,1006.68
2023-02-15T17:15:03.122Z,1006.54
2023-02-15T17:20:04.149Z,1006.44
2023-02-15T17:25:03.171Z,1006.23
2023-02-15T17:30:04.070Z,1006.01
2023-02-15T17:35:03.103Z,1005.98
2023-02-15T17:40:04.187Z,1005.91
2023-02-15T17:45:03.056Z,1005.81
2023-02-15T17:50:04.178Z,1005.79
2023-02-15T17:55:03.115Z,1006.07
2023-02-15T18:00:04.136Z,1006.1
2023-02-15T18:05:03.084Z,1006.11
2023-02-15T18:10:04.249Z,1005.9
2023-02-15T18:15:03.098Z,1005.77
2023-02-15T18:20:04.178Z,1005.66
2023-02-15T18:25:03.176Z,1005.55
2023-02-15T18:30:04.097Z,1005.5
2023-02-15T18:35:03.054Z,1005.48
2023-02-15T18:40:04.096Z,1005.44
2023-02-15T18:45:03.214Z,1005.35
2023-02-15T18:50:04.077Z,1005.33
2023-02-15T18:55:02.964Z,1005.3
2023-02-15T19:00:04.054Z,1005.28
2023-02-15T19:05:03.216Z,1005.15
2023-02-15T19:10:03.997Z,1004.98
2023-02-15T19:15:03.091Z,1004.98
2023-02-15T19:20:04.098Z,1004.89
2023-02-15T19:25:03.089Z,1004.84
2023-02-15T19:30:04.207Z,1004.75
2023-02-15T19:35:03.098Z,1004.74
2023-02-15T19:40:04.151Z,1004.72
2023-02-15T19:45:03.143Z,1004.61
2023-02-15T19:50:05.199Z,1004.46
2023-02-15T19:55:03.187Z,1004.42
2023-02-15T20:00:16.024Z,1004.43
2023-02-15T20:05:03.129Z,1004.4
2023-02-15T20:10:04.011Z,1004.32
2023-02-15T20:15:03.166Z,1004.31
2023-02-15T20:20:04.039Z,1004.29
2023-02-15T20:25:03.246Z,1004.11
2023-02-15T20:30:04.232Z,1004.12
2023-02-15T20:35:03.416Z,1004.07
2023-02-15T20:40:04.121Z,1004.07
2023-02-15T20:45:03.053Z,1004.01
2023-02-15T20:50:04.171Z,1003.92
2023-02-15T20:55:03.089Z,1003.88
2023-02-15T21:00:04.106Z,1003.74
2023-02-15T21:05:03.265Z,1003.63
2023-02-15T21:10:04.207Z,1003.59
2023-02-15T21:15:03.026Z,1003.61
2023-02-15T21:20:04.161Z,1003.65
2023-02-15T21:25:03.200Z,1003.65
2023-02-15T21:30:04.141Z,1003.71
2023-02-15T21:35:03.153Z,1003.76
2023-02-15T21:40:04.043Z,1003.84
2023-02-15T21:45:03.026Z,1003.97
2023-02-15T21:50:04.152Z,1003.96
2023-02-15T21:55:03.054Z,1003.97
2023-02-15T22:00:04.203Z,1004.04
2023-02-15T22:05:03.084Z,1004.05
2023-02-15T22:10:04.402Z,1004.06
2023-02-15T22:15:03.064Z,1004.2
2023-02-15T22:20:04.188Z,1004.12
2023-02-15T22:25:03.179Z,1004.15
2023-02-15T22:30:04.314Z,1004.18
2023-02-15T22:35:03.135Z,1004.13
2023-02-15T22:40:04.164Z,1004.2
2023-02-15T22:45:03.115Z,1004.26
2023-02-15T22:50:04.226Z,1004.29
2023-02-15T22:55:04.127Z,1004.39
2023-02-15T23:00:05.085Z,1004.41
2023-02-15T23:05:03.058Z,1004.53
2023-02-15T23:10:04.231Z,1004.69
2023-02-15T23:15:03.182Z,1004.66
2023-02-15T23:20:04.242Z,1004.69
2023-02-15T23:25:03.505Z,1004.71
2023-02-15T23:30:05.345Z,1004.84
2023-02-15T23:35:03.209Z,1004.88
2023-02-15T23:40:04.192Z,1004.96
2023-02-15T23:45:03.186Z,1005.04
2023-02-15T23:50:04.348Z,1005.04
2023-02-15T23:55:03.178Z,1005.02
